Estación municipal de Cànoves i Samalús (Vallès Oriental, P.N.del Montseny)

Consulta los datos en tiempo real de la estación municipal de Cànoves i Samalús





Hora UTC 20:00
Temperatura 25.6 ºC
Humedad 79.7 %
Presión 1020.1 hPa
Pluja 0.0 mm
Velocidad viento 4.4 km/h
Dirección viento W
Radiación solar 0.1 W/m²

Webcam

Datos diarios 2026-09-04



Hora UTC (invierno +1h; verano +2h)
Temperatura (ºC) Humedad (%) Presión (hPa) Velocidad viento (km/h) Precipitación (mm) Radiación solar (W/m²)
Hora UTC Aire Humedad Presión Vel. Dir. Vel. Max Dir. Intent. máx 5 min. Rad. Sol.
00:05 20.6 85.9 1021.3 0.0 NNE 0.0 NNE 0.0 0.1
00:10 20.6 86.1 1021.2 0.5 SE 2.5 ESE 0.0 0.1
00:15 20.5 86.6 1021.2 0.0 NNE 0.0 ESE 0.0 0.1
00:20 20.5 87.3 1021.1 1.8 NNW 3.9 NNW 0.0 0.1
00:25 20.5 87.5 1021.0 1.3 NE 4.2 NNW 0.0 0.1
00:30 20.4 87.6 1021.1 2.3 SSE 5.3 SSE 0.0 0.1
00:35 20.3 88.2 1021.0 1.0 WNW 3.2 W 0.0 0.1
00:40 20.5 88.9 1021.0 3.3 NW 6.0 WNW 0.0 0.1
00:45 20.6 89.0 1020.9 2.3 NNW 6.0 WNW 0.0 0.1
00:50 20.5 88.1 1020.9 1.7 SE 6.4 WNW 0.0 0.1
00:55 20.3 88.1 1020.8 0.1 SE 1.8 SE 0.0 0.1
01:00 20.3 88.4 1020.7 2.3 NW 4.6 NW 0.0 0.1
01:05 20.3 88.4 1020.7 1.2 SSW 3.5 S 0.0 0.1
01:10 20.3 88.8 1020.6 0.9 SSW 3.9 WSW 0.0 0.1
01:15 20.3 88.5 1020.6 1.9 W 4.2 NW 0.0 0.1
01:20 20.2 87.9 1020.6 0.6 SSW 3.5 SW 0.0 0.1
01:25 20.2 87.8 1020.5 0.3 W 2.1 WNW 0.0 0.1
01:30 20.1 87.6 1020.5 0.6 WSW 3.9 S 0.0 0.1
01:35 20.1 87.5 1020.5 3.6 S 6.4 S 0.0 0.1
01:40 20.2 87.9 1020.5 1.9 SSW 5.3 S 0.0 0.1
01:45 20.2 88.0 1020.5 4.0 S 6.0 S 0.0 0.1
01:50 20.4 88.5 1020.4 1.8 N 4.6 NNE 0.0 0.1
01:55 20.4 87.9 1020.4 0.2 S 3.2 SSW 0.0 0.1
02:00 20.3 87.6 1020.3 1.0 SE 4.2 SE 0.0 0.1
02:05 20.3 87.7 1020.3 2.6 S 4.6 SSE 0.0 0.1
02:10 20.4 88.4 1020.3 3.1 SSE 7.4 SSE 0.0 0.1
02:15 20.6 88.3 1020.3 1.4 S 7.1 SSE 0.0 0.1
02:20 20.5 88.3 1020.3 1.7 S 3.2 SSE 0.0 0.1
02:25 20.5 88.4 1020.4 0.9 SE 4.6 SSE 0.0 0.1
02:30 20.5 87.6 1020.3 0.8 E 3.2 E 0.0 0.1
02:35 20.6 87.6 1020.3 1.0 NE 4.9 SSE 0.0 0.1
02:40 20.6 87.4 1020.2 1.6 SSE 5.6 SE 0.0 0.1
02:45 20.7 86.9 1020.2 1.8 S 3.9 SSE 0.0 0.1
02:50 20.7 86.7 1020.2 0.9 ESE 3.5 NE 0.0 0.1
02:55 20.7 86.8 1020.2 1.0 NE 3.5 NE 0.0 0.1
03:00 20.7 87.0 1020.1 1.3 NNE 4.6 NNE 0.0 0.1
03:05 20.6 86.6 1020.1 0.0 NNE 0.0 NNE 0.0 0.1
03:10 20.5 86.7 1020.1 0.7 NNW 3.9 NNW 0.0 0.1
03:15 20.4 87.0 1020.0 1.9 NNW 3.5 NNW 0.0 0.1
03:20 20.3 87.1 1020.0 2.3 NNW 4.9 NNW 0.0 0.1
03:25 20.1 87.1 1019.9 2.9 NW 5.6 NW 0.0 0.1
03:30 20.0 87.0 1019.8 0.1 NNW 1.4 NNW 0.0 0.1
03:35 19.8 86.5 1019.8 0.3 NW 3.9 WNW 0.0 0.1
03:40 19.8 86.1 1019.8 0.7 NNW 4.2 WNW 0.0 0.1
03:45 19.6 84.4 1019.7 0.7 W 2.8 WNW 0.0 0.1
03:50 19.6 83.9 1019.7 2.5 S 5.3 SSE 0.0 0.1
03:55 19.8 83.8 1019.6 1.1 S 2.8 S 0.0 0.1
04:00 19.8 83.5 1019.5 0.2 SSW 2.8 SSW 0.0 0.1
04:05 19.7 82.6 1019.5 1.8 SSW 4.9 S 0.0 0.1
04:10 19.6 81.6 1019.5 2.1 S 4.6 SSE 0.0 0.1
04:15 19.6 81.5 1019.5 0.1 S 1.8 SSE 0.0 0.1
04:20 19.7 81.2 1019.5 0.0 NNE 0.0 SSE 0.0 0.1
04:25 19.7 81.0 1019.5 0.1 ESE 1.8 ESE 0.0 0.1
04:30 19.7 80.8 1019.6 0.9 SE 2.5 SSE 0.0 0.1
04:35 19.7 80.5 1019.6 2.3 SW 4.6 W 0.0 0.1
04:40 19.9 81.4 1019.6 2.9 NNW 5.3 NNW 0.0 0.1
04:45 20.2 80.3 1019.5 2.5 NNW 4.2 NW 0.0 0.1
04:50 20.0 79.5 1019.5 0.7 NW 2.8 NW 0.0 0.1
04:55 19.9 79.1 1019.5 0.6 NNW 2.1 NNW 0.0 0.1
05:00 19.8 79.5 1019.5 2.9 NW 4.2 NNW 0.0 0.4
05:05 19.9 79.6 1019.5 3.8 NW 6.7 NNW 0.0 0.9
05:10 20.0 79.3 1019.4 3.7 NW 6.0 NW 0.0 1.7
05:15 20.2 78.7 1019.4 3.0 NW 6.4 NNW 0.0 3.0
05:20 20.4 78.2 1019.3 3.2 NW 4.6 NW 0.0 4.8
05:25 20.5 77.8 1019.3 2.5 NW 4.2 NW 0.0 7.0
05:30 20.5 77.5 1019.3 0.3 NNW 3.5 NNW 0.0 9.4
05:35 20.6 77.7 1019.3 0.2 NNE 3.2 NNW 0.0 12.0
05:40 20.6 77.8 1019.3 0.5 NNW 3.9 NNE 0.0 14.8
05:45 20.6 77.9 1019.4 1.6 SSW 3.5 SSW 0.0 17.9
05:50 20.7 77.8 1019.4 0.8 SSE 3.5 S 0.0 20.9
05:55 20.7 77.5 1019.5 0.9 S 2.1 S 0.0 23.6
06:00 20.7 77.9 1019.6 0.0 S 1.1 S 0.0 25.7
06:05 20.8 78.2 1019.6 0.0 NNE 0.0 S 0.0 27.6
06:10 21.0 78.0 1019.6 0.0 NNE 0.0 NNE 0.0 29.0
06:15 21.3 77.5 1019.6 1.9 NNW 7.8 NNW 0.0 30.4
06:20 21.6 75.5 1019.6 1.9 NNW 3.9 NW 0.0 31.9
06:25 21.9 74.0 1019.6 2.2 N 4.2 NNW 0.0 33.0
06:30 22.2 73.2 1019.6 1.8 NNW 3.9 NNW 0.0 34.1
06:35 22.3 72.1 1019.6 1.3 ESE 2.8 ESE 0.0 36.2
06:40 22.4 73.2 1019.7 1.6 SSE 3.5 SE 0.0 36.0
06:45 23.0 71.3 1019.7 2.5 SSE 4.2 SE 0.0 37.0
06:50 23.7 70.4 1019.7 2.5 S 4.6 S 0.0 38.1
06:55 24.2 69.6 1019.8 2.2 S 4.2 S 0.0 39.2
07:00 24.6 67.6 1019.8 2.2 S 3.5 SSE 0.0 40.3
07:05 25.0 66.0 1019.8 1.2 S 3.2 SSE 0.0 41.8
07:10 25.4 65.5 1019.8 3.4 SSE 5.3 S 0.0 42.2
07:15 25.6 65.8 1019.8 2.5 SSE 5.6 SE 0.0 52.8
07:20 25.9 65.1 1019.8 3.6 SE 7.1 ESE 0.0 55.9
07:25 26.1 65.1 1019.9 3.9 SE 7.8 E 0.0 58.4
07:30 26.3 64.9 1019.8 2.4 SSE 5.3 SSE 0.0 46.1
07:35 26.6 63.5 1019.8 3.2 S 6.0 S 0.0 55.3
07:40 26.9 62.3 1019.9 5.7 ESE 8.5 SE 0.0 92.1
07:45 27.3 61.9 1019.9 4.9 SE 8.1 SE 0.0 104.8
07:50 27.4 61.2 1019.9 5.3 SE 8.1 ESE 0.0 311.7
07:55 27.6 59.5 1019.9 5.1 ESE 7.4 ESE 0.0 402.2
08:00 27.8 59.1 1019.9 4.3 ESE 7.8 SE 0.0 416.7
08:05 28.1 58.6 1019.9 5.5 ESE 11.3 E 0.0 431.1
08:10 28.3 56.8 1019.9 6.9 ESE 10.6 ESE 0.0 445.8
08:15 28.4 55.7 1019.9 6.4 ESE 10.6 ESE 0.0 458.7
08:20 28.6 54.9 1020.0 6.1 E 10.6 E 0.0 472.0
08:25 29.0 54.7 1020.0 4.2 ESE 10.6 E 0.0 485.0
08:30 29.3 53.6 1020.0 6.8 ESE 10.6 ESE 0.0 477.8
08:35 29.3 53.7 1020.1 7.4 SE 11.6 SE 0.0 494.2
08:40 29.5 53.3 1020.1 6.7 ESE 10.2 ESE 0.0 524.2
08:45 30.0 51.8 1020.1 5.3 SE 8.5 SE 0.0 537.1
08:50 30.3 50.5 1020.1 4.6 E 10.9 SE 0.0 548.0
08:55 30.3 50.8 1020.2 7.1 ESE 10.6 ESE 0.0 560.0
09:00 30.6 49.6 1020.2 4.5 E 8.8 ENE 0.0 570.9
09:05 30.8 50.4 1020.2 5.2 SE 11.3 S 0.0 582.0
09:10 30.9 50.2 1020.2 7.1 SSE 12.7 ESE 0.0 592.7
09:15 30.9 50.2 1020.3 7.8 SE 13.1 ESE 0.0 602.6
09:20 30.9 50.1 1020.3 6.8 SE 9.5 SE 0.0 612.7
09:25 31.1 49.4 1020.3 4.4 SSE 10.6 SSE 0.0 622.7
09:30 31.3 48.8 1020.3 6.5 ESE 12.4 ESE 0.0 633.1
09:35 31.4 48.2 1020.2 4.7 SE 10.9 SE 0.0 643.4
09:40 31.7 47.7 1020.2 3.1 E 6.4 ENE 0.0 652.9
09:45 32.1 47.9 1020.2 2.3 ESE 7.1 SSW 0.0 661.5
09:50 32.2 47.4 1020.2 5.8 ESE 12.4 SE 0.0 669.8
09:55 32.1 48.0 1020.1 2.7 S 7.4 SW 0.0 677.2
10:00 32.3 47.8 1020.1 6.3 SSE 11.3 SSE 0.0 684.9
10:05 32.4 47.4 1020.1 5.2 SE 12.7 SE 0.0 692.1
10:10 32.6 47.0 1020.1 6.6 SE 11.3 S 0.0 699.8
10:15 32.4 47.4 1020.0 6.0 S 13.4 SSW 0.0 706.7
10:20 32.5 47.2 1020.0 8.1 S 12.7 SSE 0.0 712.1
10:25 32.6 47.3 1020.0 6.1 SE 12.4 SSE 0.0 717.4
10:30 32.9 46.4 1019.9 8.6 SE 14.8 E 0.0 724.5
10:35 33.0 45.9 1019.9 7.7 SE 18.4 SE 0.0 730.7
10:40 33.4 45.5 1019.9 8.1 SE 15.2 SSE 0.0 734.7
10:45 33.5 45.8 1019.8 5.9 E 12.0 ESE 0.0 734.2
10:50 33.7 45.5 1019.8 8.8 SSE 16.6 ESE 0.0 739.7
10:55 34.0 44.8 1019.8 8.4 ESE 14.5 SE 0.0 743.1
11:00 33.6 45.6 1019.7 9.4 ESE 15.9 SE 0.0 746.1
11:05 33.6 46.0 1019.6 8.3 SE 14.8 SE 0.0 749.4
11:10 33.9 45.0 1019.6 11.8 SSE 19.1 SE 0.0 753.3
11:15 33.7 45.2 1019.6 7.3 S 14.5 S 0.0 757.8
11:20 34.1 43.7 1019.6 8.7 SSE 14.5 S 0.0 760.1
11:25 34.2 42.8 1019.5 7.2 SSW 16.6 SW 0.0 755.2
11:30 34.6 42.1 1019.5 6.8 S 20.8 SE 0.0 758.9
11:35 34.6 42.8 1019.4 6.7 S 13.4 S 0.0 761.5
11:40 34.9 44.2 1019.4 7.5 S 17.3 SSE 0.0 759.1
11:45 34.9 45.7 1019.3 9.6 SSE 20.5 S 0.0 762.9
11:50 34.4 47.9 1019.3 11.1 SSE 20.8 S 0.0 759.5
11:55 33.9 48.8 1019.3 10.8 SE 20.1 SSE 0.0 758.0
12:00 34.1 48.9 1019.3 11.6 SE 22.6 SE 0.0 756.4
12:05 34.2 49.1 1019.2 10.3 SE 18.0 SE 0.0 754.7
12:10 34.0 48.6 1019.2 12.3 SE 20.8 ESE 0.0 759.5
12:15 34.0 49.0 1019.2 14.1 SE 24.0 SE 0.0 755.4
12:20 33.9 49.6 1019.2 13.6 SE 22.2 ESE 0.0 754.0
12:25 34.0 49.3 1019.1 10.2 SSE 22.2 SE 0.0 753.6
12:30 34.0 48.6 1019.1 10.5 SSE 20.5 SSE 0.0 749.7
12:35 34.3 47.8 1019.1 8.7 S 15.9 SSW 0.0 744.4
12:40 34.3 47.6 1019.0 11.2 SE 20.8 ESE 0.0 740.5
12:45 34.0 48.0 1018.9 14.3 SE 22.9 SE 0.0 737.0
12:50 33.6 48.9 1018.9 12.7 SE 19.4 ESE 0.0 729.7
12:55 33.9 48.4 1019.0 11.4 SE 18.0 ESE 0.0 708.4
13:00 33.8 48.6 1019.0 10.0 ESE 20.1 SE 0.0 671.5
13:05 33.9 48.5 1019.0 9.3 SE 19.4 S 0.0 708.7
13:10 33.8 49.3 1019.0 9.1 SSE 16.9 S 0.0 699.0
13:15 34.2 49.4 1019.0 9.6 SE 15.5 SE 0.0 691.7
13:20 33.9 49.7 1019.0 10.2 SSE 17.3 S 0.0 683.6
13:25 33.7 50.4 1019.0 10.0 SSE 17.6 SSE 0.0 677.9
13:30 33.6 50.6 1019.0 9.7 SE 17.6 S 0.0 674.5
13:35 33.5 50.7 1018.9 10.1 SE 18.7 E 0.0 664.3
13:40 33.7 50.6 1018.9 8.7 ESE 17.3 E 0.0 655.4
13:45 33.6 51.2 1019.0 10.2 SSE 19.1 S 0.0 643.5
13:50 33.4 51.8 1019.0 9.6 SSE 18.4 SSE 0.0 635.6
13:55 33.2 51.7 1019.0 10.9 SSE 19.1 SSE 0.0 629.2
14:00 33.0 53.0 1019.0 9.9 SSE 19.4 ESE 0.0 620.7
14:05 33.0 52.7 1019.0 6.7 SSE 12.0 SE 0.0 611.5
14:10 32.9 52.9 1019.0 10.0 SSE 17.3 SSE 0.0 599.5
14:15 32.8 53.5 1018.9 8.6 SE 14.5 SE 0.0 590.4
14:20 33.2 52.8 1018.9 10.1 SE 18.7 SE 0.0 579.5
14:25 33.0 53.0 1018.9 8.2 SSE 14.8 SE 0.0 567.8
14:30 32.8 53.4 1018.9 9.9 SE 17.6 SSE 0.0 558.6
14:35 32.6 53.3 1018.9 9.0 ESE 15.2 SE 0.0 548.5
14:40 32.6 53.3 1018.9 7.5 SSE 14.1 SE 0.0 535.5
14:45 32.6 53.8 1018.9 7.2 SSE 13.8 SE 0.0 523.6
14:50 32.8 53.3 1018.9 7.2 SE 10.9 ESE 0.0 511.7
14:55 32.9 52.6 1018.9 6.5 SE 11.6 S 0.0 500.6
15:00 32.5 53.3 1018.8 5.0 S 11.6 SSW 0.0 486.3
15:05 32.7 52.7 1018.9 4.4 SE 10.9 SSE 0.0 472.8
15:10 32.8 52.2 1018.9 5.1 S 12.4 SE 0.0 459.2
15:15 32.8 52.1 1018.8 6.9 S 11.6 SSE 0.0 448.0
15:20 32.9 51.8 1018.8 6.1 SSE 10.9 SSE 0.0 435.3
15:25 32.9 51.7 1018.8 6.7 SE 13.1 SE 0.0 421.9
15:30 32.8 51.4 1018.8 6.9 SSE 12.0 SE 0.0 410.4
15:35 32.7 51.8 1018.8 8.4 SE 12.4 SE 0.0 399.0
15:40 32.6 52.9 1018.8 7.7 SSE 13.4 S 0.0 383.1
15:45 32.4 54.3 1018.8 7.7 SSE 13.8 SSE 0.0 371.4
15:50 32.4 54.2 1018.9 8.4 SSE 16.2 S 0.0 358.0
15:55 32.0 55.4 1018.9 6.3 S 10.9 SSE 0.0 345.5
16:00 31.8 55.3 1018.9 7.2 S 11.6 SSW 0.0 328.4
16:05 31.5 55.9 1018.9 7.9 S 13.4 S 0.0 312.1
16:10 31.6 56.1 1018.9 6.0 SSE 12.4 SSE 0.0 301.4
16:15 31.3 55.9 1018.9 5.7 SSE 9.9 SE 0.0 286.1
16:20 31.2 55.0 1018.9 5.6 S 11.3 SSW 0.0 268.7
16:25 30.8 55.9 1018.9 7.7 SSW 12.7 SW 0.0 254.2
16:30 30.6 55.9 1019.0 7.1 S 10.6 SSW 0.0 240.7
16:35 30.6 55.8 1018.9 5.9 SSE 8.5 SSE 0.0 227.0
16:40 30.6 55.5 1018.9 4.7 SSE 8.8 S 0.0 211.5
16:45 30.5 56.7 1018.8 5.4 SSE 8.8 SSE 0.0 197.7
16:50 30.4 57.2 1018.8 5.5 SE 8.8 ESE 0.0 184.2
16:55 30.3 58.6 1018.8 4.5 SSE 7.4 SE 0.0 170.3
17:00 30.1 60.3 1018.8 5.3 SE 8.1 SE 0.0 155.8
17:05 29.9 60.5 1018.8 6.1 SE 8.5 SE 0.0 140.6
17:10 29.8 60.8 1018.8 5.0 SSE 8.1 ESE 0.0 126.5
17:15 29.7 60.9 1018.9 3.3 S 5.3 SSW 0.0 105.6
17:20 29.6 60.2 1019.0 2.8 SW 4.6 SW 0.0 41.6
17:25 29.3 62.0 1019.0 2.7 SSW 4.2 SSW 0.0 35.2
17:30 29.1 62.9 1019.0 2.4 SSE 4.9 SSW 0.0 32.6
17:35 28.9 63.9 1019.0 3.5 SSE 5.6 SSE 0.0 29.8
17:40 28.8 64.4 1019.1 2.3 S 5.3 SSE 0.0 27.2
17:45 28.6 65.2 1019.2 3.1 S 6.0 S 0.0 24.0
17:50 28.5 66.0 1019.2 2.4 S 4.6 S 0.0 20.3
17:55 28.3 67.3 1019.2 2.9 SSW 4.9 SW 0.0 13.8
18:00 28.2 68.4 1019.2 1.4 SSW 4.9 SSW 0.0 8.5
18:05 28.1 69.9 1019.2 4.2 SW 10.2 SW 0.0 6.0
18:10 27.9 71.4 1019.3 3.9 SW 12.4 SSW 0.0 3.6
18:15 27.6 72.6 1019.3 2.9 WSW 5.6 SW 0.0 2.4
18:20 27.4 73.4 1019.3 4.7 WSW 12.4 WSW 0.0 1.5
18:25 27.3 74.0 1019.3 4.9 W 10.9 WSW 0.0 0.9
18:30 27.1 74.6 1019.3 2.9 WSW 7.1 W 0.0 0.4
18:35 26.9 75.2 1019.4 3.0 WSW 6.4 WSW 0.0 0.2
18:40 26.8 75.8 1019.5 4.1 WSW 9.9 WSW 0.0 0.1
18:45 26.7 76.2 1019.6 3.5 W 6.0 WNW 0.0 0.1
18:50 26.5 76.5 1019.7 3.3 SW 8.1 SW 0.0 0.1
18:55 26.4 77.1 1019.8 5.3 W 10.9 SW 0.0 0.1
19:00 26.3 77.3 1019.8 4.9 W 10.2 SW 0.0 0.1
19:05 26.2 77.6 1019.8 2.9 WSW 9.9 WNW 0.0 0.1
19:10 26.1 78.0 1019.9 1.8 WSW 6.4 WSW 0.0 0.1
19:15 26.0 78.7 1020.0 3.8 WSW 8.8 SW 0.0 0.1
19:20 25.9 79.3 1020.0 4.5 WSW 9.9 W 0.0 0.1
19:25 25.8 79.7 1020.1 4.7 WSW 9.2 W 0.0 0.1
19:30 25.7 79.8 1020.1 3.3 W 7.4 W 0.0 0.1
19:35 25.6 80.1 1020.1 3.8 WNW 9.2 WNW 0.0 0.1
19:40 25.6 80.3 1020.1 5.2 W 9.5 WNW 0.0 0.1
19:45 25.6 80.2 1020.1 4.9 W 9.2 WSW 0.0 0.1
19:50 25.5 79.6 1020.1 6.2 W 11.6 SW 0.0 0.1
19:55 25.6 79.9 1020.1 6.5 W 12.7 W 0.0 0.1
20:00 25.6 79.7 1020.1 4.4 W 12.0 W 0.0 0.1
Máxima 34.9 89.0 1021.3 14.3 SE 24.0 SE 0.0 762.9
Mínima 19.6 42.1 1018.8
Total 0.0